createdAt,value
2022-08-17T00:00:34.845Z,18.47
2022-08-17T00:01:27.467Z,18.45
2022-08-17T00:02:27.118Z,18.47
2022-08-17T00:03:25.957Z,18.44
2022-08-17T00:04:25.959Z,18.41
2022-08-17T00:05:25.936Z,18.41
2022-08-17T00:06:25.945Z,18.41
2022-08-17T00:07:25.907Z,18.42
2022-08-17T00:08:25.895Z,18.41
2022-08-17T00:09:25.892Z,18.39
2022-08-17T00:10:25.876Z,18.39
2022-08-17T00:11:25.878Z,18.39
2022-08-17T00:12:42.703Z,18.39
2022-08-17T00:13:26.838Z,18.42
2022-08-17T00:14:25.818Z,18.42
2022-08-17T00:15:25.796Z,18.42
2022-08-17T00:16:56.185Z,18.39
2022-08-17T00:17:26.776Z,18.42
2022-08-17T00:19:01.245Z,18.41
2022-08-17T00:19:26.746Z,18.42
2022-08-17T00:20:29.209Z,18.39
2022-08-17T00:21:26.737Z,18.39
2022-08-17T00:22:34.815Z,18.36
2022-08-17T00:23:26.694Z,18.33
2022-08-17T00:24:25.683Z,18.35
2022-08-17T00:25:25.666Z,18.32
2022-08-17T00:26:43.190Z,18.32
2022-08-17T00:27:26.635Z,18.30
2022-08-17T00:28:25.633Z,18.27
2022-08-17T00:29:25.605Z,18.29
2022-08-17T00:30:25.606Z,18.29
2022-08-17T00:31:25.598Z,18.27
2022-08-17T00:33:14.072Z,18.27
2022-08-17T00:33:26.989Z,18.30
2022-08-17T00:34:25.561Z,18.27
2022-08-17T00:35:25.527Z,18.29
2022-08-17T00:36:25.540Z,18.27
2022-08-17T00:37:25.505Z,18.26
2022-08-17T00:38:25.495Z,18.25
2022-08-17T00:39:25.532Z,18.23
2022-08-17T00:40:25.466Z,18.25
2022-08-17T00:41:25.467Z,18.25
2022-08-17T00:42:30.465Z,18.21
2022-08-17T00:43:26.428Z,18.18
2022-08-17T00:44:25.415Z,18.20
2022-08-17T00:45:26.396Z,18.14
2022-08-17T00:46:25.404Z,18.12
2022-08-17T00:47:25.366Z,18.15
2022-08-17T00:48:30.123Z,18.10
2022-08-17T00:49:26.349Z,18.10
2022-08-17T00:50:25.337Z,18.07
2022-08-17T00:51:25.776Z,18.05
2022-08-17T00:52:25.308Z,18.07
2022-08-17T00:53:25.286Z,18.00
2022-08-17T00:54:25.296Z,18.00
2022-08-17T00:55:25.271Z,18.05
2022-08-17T00:56:25.273Z,18.07
2022-08-17T00:57:25.246Z,18.07
2022-08-17T00:58:30.381Z,18.07
2022-08-17T00:59:26.216Z,18.05
2022-08-17T01:00:25.210Z,18.03
2022-08-17T01:01:25.253Z,18.05
2022-08-17T01:02:25.176Z,18.00
2022-08-17T01:03:25.164Z,17.99
2022-08-17T01:04:25.146Z,17.93
2022-08-17T01:05:25.416Z,17.95
2022-08-17T01:06:25.124Z,17.95
2022-08-17T01:07:25.128Z,17.92
2022-08-17T01:08:25.095Z,17.89
2022-08-17T01:09:25.075Z,17.86
2022-08-17T01:10:59.551Z,17.86
2022-08-17T01:11:26.078Z,17.82
2022-08-17T01:12:25.057Z,17.82
2022-08-17T01:13:25.026Z,17.84
2022-08-17T01:14:25.015Z,17.84
2022-08-17T01:15:24.995Z,17.79
2022-08-17T01:16:25.001Z,17.81
2022-08-17T01:17:24.986Z,17.79
2022-08-17T01:18:24.970Z,17.78
2022-08-17T01:19:24.948Z,17.75
2022-08-17T01:20:24.935Z,17.77
2022-08-17T01:21:24.931Z,17.72
2022-08-17T01:22:24.925Z,17.71
2022-08-17T01:23:24.886Z,17.70
2022-08-17T01:24:24.884Z,17.66
2022-08-17T01:25:24.865Z,17.68
2022-08-17T01:26:24.858Z,17.62
2022-08-17T01:27:24.856Z,17.64
2022-08-17T01:28:52.539Z,17.62
2022-08-17T01:29:25.816Z,17.64
2022-08-17T01:30:57.718Z,17.64
2022-08-17T01:31:25.795Z,17.64
2022-08-17T01:32:24.785Z,17.63
2022-08-17T01:33:24.765Z,17.63
2022-08-17T01:34:24.750Z,17.63
2022-08-17T01:35:25.736Z,17.59
2022-08-17T01:36:24.719Z,17.59
2022-08-17T01:37:24.727Z,17.58
2022-08-17T01:38:27.060Z,17.56
2022-08-17T01:39:24.721Z,17.56
2022-08-17T01:40:24.665Z,17.56
2022-08-17T01:41:24.654Z,17.58
2022-08-17T01:42:24.655Z,17.56
2022-08-17T01:43:24.626Z,17.56
2022-08-17T01:44:24.615Z,17.58
2022-08-17T01:45:24.609Z,17.54
2022-08-17T01:46:24.585Z,17.54
2022-08-17T01:47:24.595Z,17.52
2022-08-17T01:48:24.558Z,17.52
2022-08-17T01:49:24.555Z,17.49
2022-08-17T01:50:24.555Z,17.48
2022-08-17T01:51:24.530Z,17.46
2022-08-17T01:52:24.523Z,17.48
2022-08-17T01:53:24.497Z,17.44
2022-08-17T01:54:24.476Z,17.43
2022-08-17T01:55:27.352Z,17.41
2022-08-17T01:56:24.456Z,17.38
2022-08-17T01:57:24.465Z,17.37
2022-08-17T01:58:24.426Z,17.31
2022-08-17T01:59:24.415Z,17.33
2022-08-17T02:00:24.405Z,17.30
2022-08-17T02:01:24.493Z,17.28
2022-08-17T02:02:31.029Z,17.26
2022-08-17T02:03:25.365Z,17.25
2022-08-17T02:04:24.358Z,17.25
2022-08-17T02:05:24.355Z,17.25
2022-08-17T02:06:27.627Z,17.21
2022-08-17T02:07:26.112Z,17.21
2022-08-17T02:08:38.998Z,17.18
2022-08-17T02:09:25.789Z,17.18
2022-08-17T02:10:24.277Z,17.15
2022-08-17T02:11:25.264Z,17.11
2022-08-17T02:12:39.279Z,17.08
2022-08-17T02:13:25.235Z,17.06
2022-08-17T02:14:24.215Z,17.03
2022-08-17T02:15:24.205Z,17.06
2022-08-17T02:16:24.195Z,17.03
2022-08-17T02:17:24.203Z,17.01
2022-08-17T02:18:24.163Z,17.01
2022-08-17T02:19:24.159Z,16.98
2022-08-17T02:20:36.424Z,16.98
2022-08-17T02:21:25.125Z,16.96
2022-08-17T02:22:24.126Z,16.94
2022-08-17T02:23:24.104Z,16.96
2022-08-17T02:24:58.485Z,16.94
2022-08-17T02:25:25.072Z,16.94
2022-08-17T02:26:26.615Z,16.93
2022-08-17T02:27:24.056Z,16.91
2022-08-17T02:28:24.024Z,16.91
2022-08-17T02:29:24.024Z,16.91
2022-08-17T02:30:59.370Z,16.93
2022-08-17T02:31:24.997Z,16.94
2022-08-17T02:32:27.176Z,16.97
2022-08-17T02:33:24.948Z,16.97
2022-08-17T02:34:24.945Z,16.96
2022-08-17T02:35:23.935Z,16.98
2022-08-17T02:36:27.315Z,16.96
2022-08-17T02:37:23.936Z,16.96
2022-08-17T02:38:23.895Z,16.96
2022-08-17T02:39:24.054Z,16.94
2022-08-17T02:40:36.389Z,16.96
2022-08-17T02:41:24.893Z,16.94
2022-08-17T02:42:23.855Z,16.91
2022-08-17T02:43:23.835Z,16.93
2022-08-17T02:44:35.371Z,16.91
2022-08-17T02:45:24.805Z,16.88
2022-08-17T02:46:23.795Z,16.88
2022-08-17T02:47:23.810Z,16.81
2022-08-17T02:48:31.226Z,16.81
2022-08-17T02:49:24.755Z,16.82
2022-08-17T02:50:23.735Z,16.78
2022-08-17T02:51:23.745Z,16.75
2022-08-17T02:53:01.423Z,16.75
2022-08-17T02:53:24.694Z,16.75
2022-08-17T02:54:40.235Z,16.76
2022-08-17T02:55:24.674Z,16.78
2022-08-17T02:56:23.654Z,16.78
2022-08-17T02:57:23.673Z,16.81
2022-08-17T02:58:35.180Z,16.81
2022-08-17T02:59:24.615Z,16.85
2022-08-17T03:00:23.604Z,16.85
2022-08-17T03:01:23.648Z,16.83
2022-08-17T03:02:23.594Z,16.83
2022-08-17T03:03:23.576Z,16.79
2022-08-17T03:04:23.554Z,16.79
2022-08-17T03:05:23.544Z,16.73
2022-08-17T03:06:23.534Z,16.73
2022-08-17T03:07:23.534Z,16.68
2022-08-17T03:08:23.573Z,16.68
2022-08-17T03:09:23.493Z,16.67
2022-08-17T03:10:23.464Z,16.68
2022-08-17T03:11:23.486Z,16.73
2022-08-17T03:12:23.475Z,16.73
2022-08-17T03:13:23.439Z,16.73
2022-08-17T03:14:26.120Z,16.68
2022-08-17T03:15:23.424Z,16.68
2022-08-17T03:16:23.405Z,16.67
2022-08-17T03:17:23.404Z,16.63
2022-08-17T03:18:25.459Z,16.60
2022-08-17T03:19:23.355Z,16.58
2022-08-17T03:20:23.334Z,16.57
2022-08-17T03:21:23.324Z,16.56
2022-08-17T03:22:36.971Z,16.57
2022-08-17T03:23:25.598Z,16.57
2022-08-17T03:24:28.605Z,16.56
2022-08-17T03:25:24.273Z,16.53
2022-08-17T03:26:23.288Z,16.53
2022-08-17T03:27:23.269Z,16.53
2022-08-17T03:28:23.239Z,16.48
2022-08-17T03:29:23.224Z,16.48
2022-08-17T03:30:23.205Z,16.49
2022-08-17T03:31:23.196Z,16.46
2022-08-17T03:32:23.200Z,16.45
2022-08-17T03:33:23.176Z,16.45
2022-08-17T03:34:23.155Z,16.45
2022-08-17T03:35:23.143Z,16.43
2022-08-17T03:36:23.125Z,16.43
2022-08-17T03:37:23.124Z,16.41
2022-08-17T03:38:23.163Z,16.42
2022-08-17T03:39:23.084Z,16.41
2022-08-17T03:40:55.213Z,16.39
2022-08-17T03:41:24.079Z,16.41
2022-08-17T03:42:32.564Z,16.38
2022-08-17T03:43:24.069Z,16.39
2022-08-17T03:44:23.023Z,16.38
2022-08-17T03:45:23.013Z,16.35
2022-08-17T03:46:28.636Z,16.34
2022-08-17T03:47:24.004Z,16.35
2022-08-17T03:48:22.973Z,16.35
2022-08-17T03:49:22.962Z,16.38
2022-08-17T03:50:22.942Z,16.38
2022-08-17T03:51:22.933Z,16.35
2022-08-17T03:52:22.934Z,16.38
2022-08-17T03:53:22.903Z,16.35
2022-08-17T03:54:22.885Z,16.38
2022-08-17T03:55:22.880Z,16.39
2022-08-17T03:56:23.858Z,16.38
2022-08-17T03:57:22.869Z,16.39
2022-08-17T03:58:22.843Z,16.42
2022-08-17T03:59:22.838Z,16.43
2022-08-17T04:00:22.825Z,16.46
2022-08-17T04:01:22.825Z,16.49
2022-08-17T04:02:22.794Z,16.57
2022-08-17T04:03:22.772Z,16.57
2022-08-17T04:04:28.078Z,16.53
2022-08-17T04:05:23.744Z,16.53
2022-08-17T04:06:22.727Z,16.49
2022-08-17T04:07:22.735Z,16.52
2022-08-17T04:08:22.694Z,16.50
2022-08-17T04:09:22.703Z,16.50
2022-08-17T04:10:26.275Z,16.52
2022-08-17T04:11:22.663Z,16.53
2022-08-17T04:12:22.665Z,16.50
2022-08-17T04:13:24.251Z,16.50
2022-08-17T04:14:22.624Z,16.49
2022-08-17T04:15:22.613Z,16.46
2022-08-17T04:16:22.603Z,16.48
2022-08-17T04:17:22.593Z,16.46
2022-08-17T04:18:22.573Z,16.46
2022-08-17T04:19:22.562Z,16.45
2022-08-17T04:20:22.543Z,16.46
2022-08-17T04:21:22.534Z,16.46
2022-08-17T04:22:32.945Z,16.48
2022-08-17T04:23:23.515Z,16.46
2022-08-17T04:24:22.613Z,16.46
2022-08-17T04:25:22.472Z,16.48
2022-08-17T04:26:52.297Z,16.49
2022-08-17T04:27:23.470Z,16.46
2022-08-17T04:28:22.435Z,16.46
2022-08-17T04:29:22.431Z,16.45
2022-08-17T04:30:22.424Z,16.46
2022-08-17T04:31:22.409Z,16.43
2022-08-17T04:32:58.471Z,16.42
2022-08-17T04:33:23.375Z,16.43
2022-08-17T04:34:22.361Z,16.43
2022-08-17T04:35:22.343Z,16.46
2022-08-17T04:36:22.322Z,16.45
2022-08-17T04:37:22.348Z,16.49
2022-08-17T04:38:22.301Z,16.50
2022-08-17T04:39:22.303Z,16.53
2022-08-17T04:40:22.273Z,16.57
2022-08-17T04:41:22.265Z,16.57
2022-08-17T04:42:22.262Z,16.66
2022-08-17T04:43:22.242Z,16.66
2022-08-17T04:44:37.204Z,16.70
2022-08-17T04:45:23.213Z,16.78
2022-08-17T04:46:22.192Z,16.79
2022-08-17T04:47:22.193Z,16.81
2022-08-17T04:48:22.180Z,16.85
2022-08-17T04:49:22.155Z,16.83
2022-08-17T04:50:22.142Z,16.86
2022-08-17T04:51:22.134Z,16.86
2022-08-17T04:52:32.256Z,16.94
2022-08-17T04:53:23.110Z,16.94
2022-08-17T04:54:22.094Z,16.97
2022-08-17T04:55:22.073Z,16.98
2022-08-17T04:56:22.087Z,17.06
2022-08-17T04:57:22.063Z,17.06
2022-08-17T04:58:22.037Z,17.14
2022-08-17T04:59:22.024Z,17.15
2022-08-17T05:00:22.014Z,17.16
2022-08-17T05:01:24.050Z,17.25
2022-08-17T05:02:22.002Z,17.30
2022-08-17T05:03:21.975Z,17.30
2022-08-17T05:04:34.373Z,17.37
2022-08-17T05:05:22.943Z,17.40
2022-08-17T05:06:21.931Z,17.41
2022-08-17T05:07:24.607Z,17.46
2022-08-17T05:08:21.903Z,17.55
2022-08-17T05:09:21.902Z,17.62
2022-08-17T05:10:21.891Z,17.59
2022-08-17T05:11:21.903Z,17.71
2022-08-17T05:12:21.892Z,17.77
2022-08-17T05:13:21.841Z,17.78
2022-08-17T05:14:21.821Z,17.77
2022-08-17T05:15:22.814Z,17.82
2022-08-17T05:16:21.804Z,17.90
2022-08-17T05:17:21.804Z,17.90
2022-08-17T05:18:21.770Z,17.92
2022-08-17T05:19:21.778Z,18.02
2022-08-17T05:20:21.733Z,18.02
2022-08-17T05:21:21.739Z,18.10
2022-08-17T05:22:21.736Z,18.21
2022-08-17T05:23:21.707Z,18.29
2022-08-17T05:24:41.240Z,18.27
2022-08-17T05:25:25.738Z,18.33
2022-08-17T05:26:26.930Z,18.41
2022-08-17T05:27:22.672Z,18.42
2022-08-17T05:28:26.553Z,18.47
2022-08-17T05:29:22.633Z,18.50
2022-08-17T05:30:22.614Z,18.50
2022-08-17T05:31:21.620Z,18.54
2022-08-17T05:32:37.820Z,18.62
2022-08-17T05:33:22.574Z,18.63
2022-08-17T05:34:21.561Z,18.72
2022-08-17T05:35:21.542Z,18.75
2022-08-17T05:36:41.786Z,18.81
2022-08-17T05:37:22.534Z,18.85
2022-08-17T05:38:21.495Z,18.91
2022-08-17T05:39:21.494Z,18.91
2022-08-17T05:40:21.493Z,19.02
2022-08-17T05:41:21.738Z,19.11
2022-08-17T05:42:21.465Z,19.13
2022-08-17T05:43:21.443Z,19.18
2022-08-17T05:44:21.431Z,19.14
2022-08-17T05:45:32.687Z,19.26
2022-08-17T05:46:22.410Z,19.36
2022-08-17T05:47:21.384Z,19.40
2022-08-17T05:48:21.383Z,19.46
2022-08-17T05:49:22.356Z,19.44
2022-08-17T05:50:25.743Z,19.56
2022-08-17T05:51:22.333Z,19.59
2022-08-17T05:52:21.332Z,19.59
2022-08-17T05:53:21.313Z,19.76
2022-08-17T05:54:21.305Z,19.81
2022-08-17T05:55:21.282Z,19.91
2022-08-17T05:56:29.743Z,19.94
2022-08-17T05:57:22.251Z,19.94
2022-08-17T05:58:21.247Z,19.99
2022-08-17T05:59:21.230Z,20.05
2022-08-17T06:00:21.213Z,20.11
2022-08-17T06:01:22.247Z,20.18
2022-08-17T06:02:21.201Z,20.20
2022-08-17T06:03:21.183Z,20.26
2022-08-17T06:04:21.241Z,20.26
2022-08-17T06:05:21.142Z,20.35
2022-08-17T06:06:21.135Z,20.54
2022-08-17T06:07:21.123Z,20.61
2022-08-17T06:08:21.124Z,20.67
2022-08-17T06:09:26.549Z,20.73
2022-08-17T06:10:22.124Z,20.76
2022-08-17T06:11:21.065Z,20.74
2022-08-17T06:12:21.065Z,20.91
2022-08-17T06:13:21.054Z,20.95
2022-08-17T06:14:21.194Z,20.97
2022-08-17T06:15:21.013Z,21.07
2022-08-17T06:16:32.842Z,21.19
2022-08-17T06:17:21.984Z,21.27
2022-08-17T06:18:20.992Z,21.31
2022-08-17T06:19:22.094Z,21.28
2022-08-17T06:20:21.104Z,21.28
2022-08-17T06:21:20.935Z,21.21
2022-08-17T06:22:21.936Z,21.22
2022-08-17T06:23:20.944Z,21.21
2022-08-17T06:24:20.895Z,21.28
2022-08-17T06:25:20.932Z,21.44
2022-08-17T06:26:20.885Z,21.44
2022-08-17T06:27:21.854Z,21.62
2022-08-17T06:28:20.856Z,21.74
2022-08-17T06:29:20.825Z,21.86
2022-08-17T06:30:20.818Z,21.98
2022-08-17T06:31:20.805Z,22.07
2022-08-17T06:32:20.806Z,22.10
2022-08-17T06:33:21.070Z,22.25
2022-08-17T06:34:20.770Z,22.36
2022-08-17T06:35:20.988Z,22.40
2022-08-17T06:36:20.736Z,22.49
2022-08-17T06:37:20.723Z,22.64
2022-08-17T06:38:38.299Z,22.73
2022-08-17T06:39:21.695Z,22.77
2022-08-17T06:40:20.681Z,22.83
2022-08-17T06:41:20.665Z,22.92
2022-08-17T06:43:02.716Z,23.01
2022-08-17T06:43:21.721Z,23.13
2022-08-17T06:44:42.142Z,23.16
2022-08-17T06:45:21.606Z,23.15
2022-08-17T06:46:21.176Z,23.19
2022-08-17T06:47:28.391Z,23.25
2022-08-17T06:48:21.595Z,23.25
2022-08-17T06:49:20.567Z,23.23
2022-08-17T06:50:20.564Z,23.31
2022-08-17T06:51:20.526Z,23.36
2022-08-17T06:52:46.859Z,23.43
2022-08-17T06:53:21.506Z,23.53
2022-08-17T06:54:20.507Z,23.65
2022-08-17T06:55:20.580Z,23.78
2022-08-17T06:56:20.467Z,23.84
2022-08-17T06:57:20.480Z,23.93
2022-08-17T06:58:20.449Z,23.98
2022-08-17T06:59:20.434Z,24.05
2022-08-17T07:00:20.426Z,24.12
2022-08-17T07:01:20.469Z,24.20
2022-08-17T07:02:20.398Z,24.22
2022-08-17T07:03:21.388Z,24.22
2022-08-17T07:04:20.378Z,24.32
2022-08-17T07:05:20.338Z,24.37
2022-08-17T07:06:20.339Z,24.42
2022-08-17T07:07:20.310Z,24.47
2022-08-17T07:08:20.331Z,24.55
2022-08-17T07:09:20.282Z,24.55
2022-08-17T07:10:20.280Z,24.62
2022-08-17T07:11:20.267Z,24.64
2022-08-17T07:12:20.260Z,24.67
2022-08-17T07:13:20.250Z,24.65
2022-08-17T07:14:20.239Z,24.69
2022-08-17T07:15:20.209Z,24.76
2022-08-17T07:16:20.222Z,24.77
2022-08-17T07:17:20.185Z,24.83
2022-08-17T07:18:20.197Z,24.84
2022-08-17T07:19:20.173Z,24.87
2022-08-17T07:20:20.156Z,24.93
2022-08-17T07:21:22.975Z,25.05
2022-08-17T07:22:21.152Z,25.17
2022-08-17T07:23:20.120Z,25.27
2022-08-17T07:24:29.209Z,25.33
2022-08-17T07:25:21.118Z,25.45
2022-08-17T07:26:20.100Z,25.52
2022-08-17T07:27:20.068Z,25.57
2022-08-17T07:28:20.067Z,25.70
2022-08-17T07:29:20.053Z,25.72
2022-08-17T07:30:20.032Z,25.80
2022-08-17T07:31:20.033Z,25.92
2022-08-17T07:32:20.031Z,25.99
2022-08-17T07:33:20.048Z,26.12
2022-08-17T07:34:19.982Z,26.12
2022-08-17T07:35:20.085Z,26.20
2022-08-17T07:36:19.962Z,26.33
2022-08-17T07:37:19.929Z,26.39
2022-08-17T07:38:26.318Z,26.40
2022-08-17T07:39:20.897Z,26.50
2022-08-17T07:40:19.931Z,26.62
2022-08-17T07:41:19.909Z,26.69
2022-08-17T07:42:19.877Z,26.62
2022-08-17T07:43:21.904Z,26.60
2022-08-17T07:44:19.853Z,26.63
2022-08-17T07:45:19.806Z,26.69
2022-08-17T07:46:19.840Z,26.75
2022-08-17T07:47:19.786Z,26.81
2022-08-17T07:48:19.786Z,26.94
2022-08-17T07:49:19.791Z,27.06
2022-08-17T07:50:23.923Z,27.18
2022-08-17T07:51:20.725Z,27.31
2022-08-17T07:52:48.379Z,27.37
2022-08-17T07:53:20.714Z,27.46
2022-08-17T07:54:19.697Z,27.41
2022-08-17T07:55:19.685Z,27.47
2022-08-17T07:56:19.695Z,27.57
2022-08-17T07:57:19.667Z,27.63
2022-08-17T07:58:19.646Z,27.72
2022-08-17T07:59:23.175Z,27.75
2022-08-17T08:00:19.627Z,27.74
2022-08-17T08:01:20.642Z,27.66
2022-08-17T08:02:19.640Z,27.59
2022-08-17T08:03:19.596Z,27.54
2022-08-17T08:04:25.838Z,27.51
2022-08-17T08:05:48.563Z,27.51
2022-08-17T08:06:20.565Z,27.65
2022-08-17T08:07:19.519Z,27.78
2022-08-17T08:08:19.537Z,27.87
2022-08-17T08:09:19.491Z,27.97
2022-08-17T08:10:19.550Z,28.03
2022-08-17T08:11:19.484Z,28.04
2022-08-17T08:12:19.459Z,28.06
2022-08-17T08:13:19.462Z,28.03
2022-08-17T08:14:19.429Z,27.99
2022-08-17T08:15:19.458Z,27.97
2022-08-17T08:16:19.409Z,28.02
2022-08-17T08:17:19.388Z,28.12
2022-08-17T08:18:19.388Z,28.14
2022-08-17T08:19:21.174Z,28.19
2022-08-17T08:20:51.165Z,28.22
2022-08-17T08:21:20.339Z,28.22
2022-08-17T08:22:19.351Z,28.00
2022-08-17T08:23:19.329Z,27.96
2022-08-17T08:24:19.298Z,28.00
2022-08-17T08:25:19.280Z,27.97
2022-08-17T08:26:19.270Z,27.97
2022-08-17T08:27:19.271Z,28.00
2022-08-17T08:28:19.264Z,28.03
2022-08-17T08:29:19.237Z,28.07
2022-08-17T08:30:19.220Z,28.14
2022-08-17T08:31:19.219Z,28.22
2022-08-17T08:32:19.210Z,28.34
2022-08-17T08:33:19.212Z,28.46
2022-08-17T08:34:44.621Z,28.52
2022-08-17T08:35:20.159Z,28.56
2022-08-17T08:37:14.243Z,28.36
2022-08-17T08:37:30.291Z,28.22
2022-08-17T08:38:20.151Z,28.22
2022-08-17T08:39:19.113Z,28.18
2022-08-17T08:40:19.117Z,28.30
2022-08-17T08:41:19.093Z,28.44
2022-08-17T08:42:19.074Z,28.61
2022-08-17T08:43:19.096Z,28.77
2022-08-17T08:44:19.062Z,28.92
2022-08-17T08:45:19.053Z,28.89
2022-08-17T08:46:19.840Z,28.86
2022-08-17T08:47:19.003Z,28.83
2022-08-17T08:48:45.929Z,28.83
2022-08-17T08:49:29.694Z,28.89
2022-08-17T08:50:34.127Z,29.21
2022-08-17T08:51:19.951Z,29.49
2022-08-17T08:52:18.945Z,29.79
2022-08-17T08:53:18.940Z,30.02
2022-08-17T08:54:22.334Z,30.26
2022-08-17T08:55:19.915Z,30.47
2022-08-17T08:56:18.885Z,30.53
2022-08-17T08:57:25.518Z,30.53
2022-08-17T08:58:32.165Z,30.57
2022-08-17T08:59:19.844Z,30.67
2022-08-17T09:00:18.891Z,30.62
2022-08-17T09:01:18.851Z,30.51
2022-08-17T09:02:18.816Z,30.57
2022-08-17T09:03:18.816Z,30.70
2022-08-17T09:04:24.649Z,30.70
2022-08-17T09:05:19.774Z,30.61
2022-08-17T09:06:33.256Z,30.58
2022-08-17T09:07:19.745Z,30.47
2022-08-17T09:08:18.757Z,30.53
2022-08-17T09:09:18.725Z,30.60
2022-08-17T09:10:18.773Z,30.64
2022-08-17T09:11:18.696Z,30.77
2022-08-17T09:12:18.707Z,30.79
2022-08-17T09:13:18.817Z,30.77
2022-08-17T09:14:22.096Z,30.84
2022-08-17T09:15:19.656Z,30.89
2022-08-17T09:16:18.628Z,30.84
2022-08-17T09:17:18.638Z,30.86
2022-08-17T09:19:01.516Z,30.89
2022-08-17T09:19:19.593Z,30.92
2022-08-17T09:20:27.982Z,31.10
2022-08-17T09:21:19.566Z,31.20
2022-08-17T09:22:18.643Z,31.28
2022-08-17T09:23:18.549Z,31.38
2022-08-17T09:24:20.806Z,31.50
2022-08-17T09:25:18.540Z,31.57
2022-08-17T09:26:18.508Z,31.57
2022-08-17T09:27:18.499Z,31.61
2022-08-17T09:28:18.499Z,31.62
2022-08-17T09:29:18.463Z,31.61
2022-08-17T09:30:18.463Z,31.57
2022-08-17T09:31:18.440Z,31.61
2022-08-17T09:32:18.517Z,31.68
2022-08-17T09:33:18.428Z,31.65
2022-08-17T09:34:18.409Z,31.44
2022-08-17T09:35:18.382Z,31.61
2022-08-17T09:36:18.381Z,31.81
2022-08-17T09:37:18.365Z,32.07
2022-08-17T09:38:18.481Z,32.11
2022-08-17T09:39:18.331Z,32.21
2022-08-17T09:40:18.462Z,32.33
2022-08-17T09:41:18.309Z,32.32
2022-08-17T09:42:18.361Z,32.22
2022-08-17T09:43:18.293Z,32.18
2022-08-17T09:44:23.199Z,32.28
2022-08-17T09:45:19.269Z,32.30
2022-08-17T09:46:18.277Z,32.25
2022-08-17T09:47:18.256Z,32.06
2022-08-17T09:48:18.384Z,31.85
2022-08-17T09:49:20.708Z,31.85
2022-08-17T09:50:19.193Z,31.92
2022-08-17T09:51:19.182Z,31.95
2022-08-17T09:52:18.285Z,32.04
2022-08-17T09:53:18.163Z,31.95
2022-08-17T09:54:38.065Z,32.03
2022-08-17T09:55:19.126Z,32.10
2022-08-17T09:56:18.123Z,32.21
2022-08-17T09:57:29.728Z,32.37
2022-08-17T09:58:19.105Z,32.25
2022-08-17T09:59:18.076Z,32.40
2022-08-17T10:00:18.086Z,32.57
2022-08-17T10:01:18.178Z,32.75
2022-08-17T10:02:18.036Z,32.79
2022-08-17T10:03:18.053Z,32.96
2022-08-17T10:04:20.231Z,33.03
2022-08-17T10:05:18.016Z,32.97
2022-08-17T10:06:21.992Z,32.77
2022-08-17T10:07:17.996Z,32.57
2022-08-17T10:08:17.986Z,32.57
2022-08-17T10:09:17.958Z,32.37
2022-08-17T10:10:18.025Z,32.37
2022-08-17T10:11:17.965Z,32.22
2022-08-17T10:12:18.064Z,31.89
2022-08-17T10:13:18.396Z,31.58
2022-08-17T10:14:36.785Z,31.43
2022-08-17T10:15:18.884Z,31.43
2022-08-17T10:16:17.858Z,31.23
2022-08-17T10:17:17.861Z,31.01
2022-08-17T10:18:17.847Z,31.10
2022-08-17T10:19:17.823Z,31.26
2022-08-17T10:20:17.818Z,31.53
2022-08-17T10:21:17.799Z,31.78
2022-08-17T10:22:35.176Z,32.10
2022-08-17T10:23:18.787Z,32.45
2022-08-17T10:24:17.790Z,32.69
2022-08-17T10:25:23.617Z,32.84
2022-08-17T10:26:18.767Z,32.99
2022-08-17T10:27:17.727Z,33.07
2022-08-17T10:28:20.138Z,32.99
2022-08-17T10:29:17.697Z,33.01
2022-08-17T10:30:17.677Z,32.97
2022-08-17T10:31:34.142Z,32.92
2022-08-17T10:32:18.650Z,32.88
2022-08-17T10:33:17.659Z,32.87
2022-08-17T10:34:17.632Z,32.93
2022-08-17T10:35:17.621Z,33.01
2022-08-17T10:36:17.612Z,33.15
2022-08-17T10:37:17.601Z,33.35
2022-08-17T10:38:17.582Z,33.56
2022-08-17T10:39:17.664Z,33.68
2022-08-17T10:40:17.575Z,33.79
2022-08-17T10:41:17.578Z,33.59
2022-08-17T10:42:30.104Z,33.60
2022-08-17T10:43:18.510Z,33.63
2022-08-17T10:44:38.415Z,33.39
2022-08-17T10:45:18.540Z,33.14
2022-08-17T10:46:29.900Z,32.96
2022-08-17T10:47:18.470Z,32.72
2022-08-17T10:48:17.451Z,32.78
2022-08-17T10:49:17.472Z,32.92
2022-08-17T10:50:17.452Z,33.14
2022-08-17T10:51:17.414Z,33.22
2022-08-17T10:52:17.393Z,33.19
2022-08-17T10:53:19.934Z,33.29
2022-08-17T10:54:17.395Z,33.47
2022-08-17T10:55:17.365Z,33.57
2022-08-17T10:56:17.344Z,33.73
2022-08-17T10:57:17.338Z,33.94
2022-08-17T10:58:17.334Z,34.10
2022-08-17T10:59:17.331Z,33.93
2022-08-17T11:00:17.306Z,33.78
2022-08-17T11:01:17.353Z,33.81
2022-08-17T11:02:17.305Z,33.84
2022-08-17T11:03:17.266Z,33.86
2022-08-17T11:04:17.277Z,33.76
2022-08-17T11:05:17.245Z,33.73
2022-08-17T11:06:17.234Z,33.82
2022-08-17T11:07:17.215Z,33.95
2022-08-17T11:08:17.440Z,34.06
2022-08-17T11:09:17.206Z,34.00
2022-08-17T11:10:17.178Z,33.87
2022-08-17T11:11:17.165Z,33.72
2022-08-17T11:12:17.245Z,33.75
2022-08-17T11:13:17.144Z,33.78
2022-08-17T11:14:17.163Z,33.73
2022-08-17T11:15:17.117Z,33.73
2022-08-17T11:16:17.096Z,33.81
2022-08-17T11:17:17.097Z,33.97
2022-08-17T11:18:17.076Z,34.09
2022-08-17T11:19:17.080Z,34.22
2022-08-17T11:20:17.049Z,34.40
2022-08-17T11:21:17.060Z,34.43
2022-08-17T11:22:17.036Z,34.54
2022-08-17T11:23:17.018Z,34.69
2022-08-17T11:24:17.018Z,34.65
2022-08-17T11:25:17.018Z,34.70
2022-08-17T11:26:16.979Z,34.82
2022-08-17T11:27:16.986Z,34.96
2022-08-17T11:28:18.113Z,35.04
2022-08-17T11:29:16.978Z,35.16
2022-08-17T11:30:17.414Z,35.31
2022-08-17T11:31:17.001Z,35.45
2022-08-17T11:32:16.899Z,35.53
2022-08-17T11:33:16.909Z,34.87
2022-08-17T11:34:16.893Z,34.69
2022-08-17T11:35:16.881Z,34.77
2022-08-17T11:36:16.861Z,34.61
2022-08-17T11:37:16.881Z,34.49
2022-08-17T11:38:16.981Z,34.35
2022-08-17T11:39:16.850Z,34.52
2022-08-17T11:40:16.883Z,34.69
2022-08-17T11:41:16.820Z,34.77
2022-08-17T11:42:16.782Z,34.73
2022-08-17T11:43:16.782Z,34.73
2022-08-17T11:44:16.773Z,34.84
2022-08-17T11:45:19.519Z,34.97
2022-08-17T11:46:17.732Z,35.02
2022-08-17T11:47:16.734Z,35.00
2022-08-17T11:48:27.629Z,35.11
2022-08-17T11:49:17.726Z,35.23
2022-08-17T11:50:16.704Z,35.34
2022-08-17T11:51:16.694Z,35.41
2022-08-17T11:52:16.662Z,35.53
2022-08-17T11:53:16.661Z,35.65
2022-08-17T11:54:32.360Z,35.63
2022-08-17T11:55:34.524Z,35.50
2022-08-17T11:56:17.624Z,35.04
2022-08-17T11:57:16.604Z,34.88
2022-08-17T11:58:16.603Z,34.88
2022-08-17T11:59:16.644Z,34.94
2022-08-17T12:00:16.563Z,35.04
2022-08-17T12:01:16.687Z,35.22
2022-08-17T12:02:16.556Z,35.29
2022-08-17T12:03:16.612Z,35.33
2022-08-17T12:04:16.575Z,35.48
2022-08-17T12:05:16.515Z,35.63
2022-08-17T12:06:16.495Z,35.70
2022-08-17T12:07:16.486Z,35.77
2022-08-17T12:08:16.472Z,35.84
2022-08-17T12:09:16.474Z,35.78
2022-08-17T12:10:16.447Z,35.80
2022-08-17T12:11:16.436Z,35.80
2022-08-17T12:12:17.434Z,35.85
2022-08-17T12:13:16.405Z,35.87
2022-08-17T12:14:20.181Z,35.90
2022-08-17T12:15:17.387Z,35.93
2022-08-17T12:16:16.395Z,36.01
2022-08-17T12:17:34.697Z,35.99
2022-08-17T12:18:17.373Z,35.92
2022-08-17T12:19:16.346Z,35.74
2022-08-17T12:20:16.361Z,35.59
2022-08-17T12:21:16.319Z,35.41
2022-08-17T12:22:16.290Z,35.34
2022-08-17T12:23:16.287Z,35.14
2022-08-17T12:24:16.281Z,35.00
2022-08-17T12:25:16.249Z,34.92
2022-08-17T12:26:16.239Z,34.78
2022-08-17T12:27:16.241Z,34.84
2022-08-17T12:28:19.948Z,34.99
2022-08-17T12:29:18.111Z,35.07
2022-08-17T12:30:17.201Z,35.22
2022-08-17T12:31:16.191Z,35.19
2022-08-17T12:32:16.187Z,35.29
2022-08-17T12:33:25.226Z,35.37
2022-08-17T12:34:17.163Z,35.21
2022-08-17T12:35:16.130Z,35.33
2022-08-17T12:36:16.133Z,35.48
2022-08-17T12:37:16.123Z,35.59
2022-08-17T12:38:26.877Z,35.71
2022-08-17T12:39:21.432Z,35.82
2022-08-17T12:40:16.067Z,35.80
2022-08-17T12:41:16.061Z,35.59
2022-08-17T12:42:16.048Z,35.55
2022-08-17T12:43:16.039Z,35.31
2022-08-17T12:44:16.043Z,35.31
2022-08-17T12:45:16.012Z,35.50
2022-08-17T12:46:16.003Z,35.70
2022-08-17T12:47:21.552Z,35.77
2022-08-17T12:48:16.963Z,35.71
2022-08-17T12:49:15.992Z,35.68
2022-08-17T12:50:28.984Z,35.68
2022-08-17T12:51:16.944Z,35.82
2022-08-17T12:52:15.921Z,36.08